97PN weather

Public forecast

Using degrees Fahrenheit for public forecast. Weather courtesy of forecast.io.

Closest aviation weather report (METAR) to Gold Mine Field

Closest report is Pennridge Airport, 2.8 nm (5.2 km) ENE. Retrieved 2020/08/15 13:35 UTC (12 minutes ago):

KCKZ 151335Z AUTO 04005KT 10SM CLR 23/17 A3004 RMK AO2

Closest aviation forecast (TAF) to Gold Mine Field

Closest forecast is Lehigh Valley International Airport, 17.1 nm (31.8 km) NNW. Retrieved 2020/08/15 12:22 UTC (1 hour ago):

TAF KABE 151120Z 1512/1612 VRB03KT P6SM BKN250 FM151300 07006KT P6SM BKN200 FM152100 11007KT P6SM OVC090 FM160400 08004KT P6SM VCSH OVC040 FM160700 07005KT P6SM -SHRA OVC025 FM161100 06006KT 6SM SHRA OVC015